createdAt,value
2022-08-22T00:00:17.042Z,3.58
2022-08-22T00:02:43.020Z,4.82
2022-08-22T00:02:58.607Z,3.60
2022-08-22T00:03:08.441Z,3.88
2022-08-22T00:03:17.371Z,3.65
2022-08-22T00:06:02.543Z,3.95
2022-08-22T00:08:35.062Z,4.65
2022-08-22T00:11:08.294Z,4.35
2022-08-22T00:13:47.340Z,4.30
2022-08-22T00:16:29.944Z,4.47
2022-08-22T00:19:05.692Z,4.50
2022-08-22T00:21:40.959Z,4.43
2022-08-22T00:24:23.175Z,4.88
2022-08-22T00:27:04.526Z,4.40
2022-08-22T00:29:44.098Z,5.13
2022-08-22T00:32:21.458Z,4.80
2022-08-22T00:34:55.951Z,4.93
2022-08-22T00:37:29.575Z,5.82
2022-08-22T00:40:05.940Z,5.90
2022-08-22T00:43:13.016Z,5.57
2022-08-22T00:45:55.034Z,6.73
2022-08-22T00:49:16.165Z,6.20
2022-08-22T00:52:26.698Z,6.32
2022-08-22T00:55:25.381Z,6.28
2022-08-22T00:58:24.023Z,7.50
2022-08-22T01:00:55.441Z,6.75
2022-08-22T01:03:49.821Z,6.57
2022-08-22T01:06:26.162Z,7.35
2022-08-22T01:09:02.958Z,8.77
2022-08-22T01:12:12.117Z,9.57
2022-08-22T01:14:45.970Z,10.18
2022-08-22T01:17:41.423Z,11.05
2022-08-22T01:20:30.520Z,10.85
2022-08-22T01:23:30.372Z,11.05
2022-08-22T01:26:40.523Z,13.07
2022-08-22T01:29:39.722Z,12.40
2022-08-22T01:32:50.594Z,11.00
2022-08-22T01:35:38.599Z,12.35
2022-08-22T01:38:27.774Z,13.18
2022-08-22T01:41:17.202Z,13.23
2022-08-22T01:44:09.204Z,13.73
2022-08-22T01:46:48.494Z,14.65
2022-08-22T01:49:20.715Z,12.98
2022-08-22T01:51:55.644Z,13.63
2022-08-22T01:54:32.555Z,14.63
2022-08-22T01:57:04.314Z,12.80
2022-08-22T01:59:42.389Z,13.60
2022-08-22T02:02:36.502Z,12.85
2022-08-22T02:05:10.171Z,13.32
2022-08-22T02:07:49.106Z,13.43
2022-08-22T02:10:23.179Z,13.15
2022-08-22T02:13:01.221Z,12.35
2022-08-22T02:15:45.293Z,11.80
2022-08-22T02:18:19.206Z,12.30
2022-08-22T02:21:00.528Z,10.65
2022-08-22T02:23:37.828Z,11.88
2022-08-22T02:26:09.936Z,12.57
2022-08-22T02:28:57.041Z,12.00
2022-08-22T02:31:38.852Z,11.55
2022-08-22T02:34:22.736Z,12.95
2022-08-22T02:36:58.226Z,13.52
2022-08-22T02:39:36.965Z,15.77
2022-08-22T02:42:16.543Z,15.52
2022-08-22T02:44:55.742Z,17.73
2022-08-22T02:47:31.122Z,16.92
2022-08-22T02:50:05.969Z,17.90
2022-08-22T02:52:51.853Z,20.17
2022-08-22T02:55:41.779Z,19.25
2022-08-22T02:58:19.925Z,18.63
2022-08-22T03:00:51.363Z,19.83
2022-08-22T03:03:26.078Z,19.50
2022-08-22T03:06:01.666Z,21.30
2022-08-22T03:08:33.292Z,21.25
2022-08-22T03:11:19.092Z,21.33
2022-08-22T03:13:57.522Z,21.15
2022-08-22T03:16:30.830Z,22.60
2022-08-22T03:19:05.363Z,23.13
2022-08-22T03:21:38.617Z,22.27
2022-08-22T03:24:13.136Z,25.58
2022-08-22T03:26:48.488Z,25.50
2022-08-22T03:29:21.179Z,25.35
2022-08-22T03:32:14.701Z,28.10
2022-08-22T03:35:00.650Z,28.63
2022-08-22T03:37:40.655Z,29.40
2022-08-22T03:40:24.562Z,31.88
2022-08-22T03:43:13.356Z,32.05
2022-08-22T03:46:27.887Z,32.10
2022-08-22T03:49:26.809Z,31.27
2022-08-22T03:52:08.388Z,32.78
2022-08-22T03:55:05.333Z,31.83
2022-08-22T03:57:55.837Z,32.08
2022-08-22T04:00:55.963Z,32.50
2022-08-22T04:03:59.064Z,31.05
2022-08-22T04:07:00.816Z,33.42
2022-08-22T04:10:14.230Z,32.47
2022-08-22T04:13:11.585Z,33.42
2022-08-22T04:16:13.435Z,31.83
2022-08-22T04:19:14.968Z,32.08
2022-08-22T04:21:54.939Z,32.80
2022-08-22T04:24:52.015Z,32.22
2022-08-22T04:27:25.934Z,33.47
2022-08-22T04:29:58.521Z,33.58
2022-08-22T04:32:34.445Z,33.13
2022-08-22T04:35:07.470Z,33.08
2022-08-22T04:37:40.216Z,33.70
2022-08-22T04:40:13.053Z,31.73
2022-08-22T04:42:44.083Z,32.15
2022-08-22T04:45:17.167Z,31.52
2022-08-22T04:47:54.144Z,32.25
2022-08-22T04:50:26.126Z,31.58
2022-08-22T04:53:11.141Z,33.00
2022-08-22T04:55:50.239Z,32.80
2022-08-22T04:58:35.139Z,32.30
2022-08-22T05:01:11.153Z,31.85
2022-08-22T05:03:48.102Z,30.95
2022-08-22T05:06:19.981Z,32.22
2022-08-22T05:08:53.877Z,32.42
2022-08-22T05:11:24.793Z,34.78
2022-08-22T05:13:58.760Z,33.90
2022-08-22T05:16:35.311Z,33.97
2022-08-22T05:19:12.004Z,34.63
2022-08-22T05:21:44.848Z,36.00
2022-08-22T05:24:18.512Z,36.67
2022-08-22T05:26:50.564Z,35.88
2022-08-22T05:29:25.147Z,35.92
2022-08-22T05:31:57.069Z,35.75
2022-08-22T05:34:32.548Z,35.83
2022-08-22T05:37:08.263Z,35.00
2022-08-22T05:39:39.197Z,35.83
2022-08-22T05:42:15.577Z,34.78
2022-08-22T05:44:44.260Z,34.55
2022-08-22T05:47:23.437Z,34.45
2022-08-22T05:50:00.496Z,35.30
2022-08-22T05:52:58.003Z,35.10
2022-08-22T05:55:30.025Z,35.03
2022-08-22T05:58:16.233Z,33.55
2022-08-22T06:00:48.915Z,32.75
2022-08-22T06:03:20.626Z,34.65
2022-08-22T06:05:53.732Z,34.58
2022-08-22T06:08:26.461Z,32.83
2022-08-22T06:10:57.089Z,31.90
2022-08-22T06:13:32.757Z,33.22
2022-08-22T06:16:09.446Z,34.20
2022-08-22T06:18:42.685Z,33.65
2022-08-22T06:21:14.744Z,35.13
2022-08-22T06:23:46.584Z,35.20
2022-08-22T06:26:20.731Z,35.35
2022-08-22T06:28:55.242Z,34.67
2022-08-22T06:31:27.417Z,34.17
2022-08-22T06:33:59.235Z,35.55
2022-08-22T06:36:32.672Z,36.60
2022-08-22T06:39:08.519Z,35.22
2022-08-22T06:41:40.557Z,35.17
2022-08-22T06:44:17.668Z,36.47
2022-08-22T06:46:47.610Z,37.70
2022-08-22T06:49:17.790Z,36.63
2022-08-22T06:51:51.142Z,37.22
2022-08-22T06:54:24.304Z,36.33
2022-08-22T06:56:56.837Z,37.80
2022-08-22T06:59:28.556Z,37.70
2022-08-22T07:02:05.390Z,38.60
2022-08-22T07:04:34.165Z,40.85
2022-08-22T07:07:04.842Z,40.90
2022-08-22T07:09:37.245Z,39.13
2022-08-22T07:12:14.255Z,42.60
2022-08-22T07:14:45.187Z,41.67
2022-08-22T07:17:19.091Z,43.72
2022-08-22T07:19:56.359Z,41.88
2022-08-22T07:22:28.933Z,41.67
2022-08-22T07:25:05.275Z,41.13
2022-08-22T07:28:05.522Z,42.08
2022-08-22T07:30:43.654Z,39.88
2022-08-22T07:33:28.724Z,38.53
2022-08-22T07:36:01.682Z,38.50
2022-08-22T07:38:42.867Z,39.88
2022-08-22T07:41:15.237Z,38.83
2022-08-22T07:43:47.605Z,38.85
2022-08-22T07:46:28.169Z,38.50
2022-08-22T07:49:09.134Z,41.10
2022-08-22T07:51:43.722Z,39.22
2022-08-22T07:54:16.751Z,41.45
2022-08-22T07:56:51.260Z,39.80
2022-08-22T07:59:22.405Z,38.95
2022-08-22T08:01:54.435Z,39.72
2022-08-22T08:04:26.442Z,39.03
2022-08-22T08:07:03.101Z,40.47
2022-08-22T08:09:34.985Z,40.17
2022-08-22T08:12:06.691Z,38.83
2022-08-22T08:14:38.623Z,38.75
2022-08-22T08:17:12.173Z,37.90
2022-08-22T08:19:42.767Z,37.38
2022-08-22T08:22:17.102Z,35.85
2022-08-22T08:24:48.206Z,35.25
2022-08-22T08:27:42.890Z,38.58
2022-08-22T08:32:48.891Z,35.58
2022-08-22T08:35:21.298Z,33.53
2022-08-22T08:37:52.655Z,36.35
2022-08-22T08:40:48.534Z,36.97
2022-08-22T08:43:34.558Z,37.70
2022-08-22T08:46:28.264Z,37.33
2022-08-22T08:49:35.212Z,38.60
2022-08-22T08:52:48.182Z,37.13
2022-08-22T08:55:34.391Z,36.38
2022-08-22T08:58:18.748Z,36.17
2022-08-22T09:00:53.881Z,34.70
2022-08-22T09:03:38.736Z,36.33
2022-08-22T09:06:30.685Z,35.25
2022-08-22T09:09:14.324Z,34.83
2022-08-22T09:12:01.782Z,36.15
2022-08-22T09:14:57.792Z,35.22
2022-08-22T09:18:10.820Z,37.08
2022-08-22T09:21:01.164Z,37.13
2022-08-22T09:24:02.065Z,38.63
2022-08-22T09:26:38.953Z,39.55
2022-08-22T09:29:29.073Z,38.25
2022-08-22T09:32:13.178Z,39.22
2022-08-22T09:35:00.307Z,39.40
2022-08-22T09:37:40.555Z,39.53
2022-08-22T09:40:18.894Z,40.58
2022-08-22T09:42:57.043Z,38.20
2022-08-22T09:45:49.934Z,37.17
2022-08-22T09:48:39.000Z,35.80
2022-08-22T09:51:31.437Z,35.83
2022-08-22T09:54:20.326Z,34.38
2022-08-22T09:57:17.119Z,34.13
2022-08-22T10:00:31.054Z,34.80
2022-08-22T10:03:11.328Z,32.78
2022-08-22T10:05:48.240Z,30.42
2022-08-22T10:08:32.636Z,24.95
2022-08-22T10:11:14.421Z,25.35
2022-08-22T10:13:57.647Z,23.75
2022-08-22T10:17:03.076Z,25.17
2022-08-22T10:19:46.859Z,27.05
2022-08-22T10:22:30.321Z,26.38
2022-08-22T10:25:15.250Z,28.75
2022-08-22T10:27:57.544Z,26.52
2022-08-22T10:30:32.117Z,27.80
2022-08-22T10:33:06.283Z,27.42
2022-08-22T10:35:45.821Z,24.88
2022-08-22T10:38:25.075Z,20.73
2022-08-22T10:41:00.764Z,20.63
2022-08-22T10:43:39.128Z,20.63
2022-08-22T10:46:15.425Z,20.67
2022-08-22T10:48:54.044Z,17.77
2022-08-22T10:51:55.369Z,15.68
2022-08-22T10:54:44.720Z,13.45
2022-08-22T10:57:23.980Z,9.63
2022-08-22T10:59:59.001Z,9.77
2022-08-22T11:02:47.801Z,8.55
2022-08-22T11:05:37.618Z,8.77
2022-08-22T11:08:30.296Z,8.95
2022-08-22T11:11:15.049Z,8.60
2022-08-22T11:13:58.574Z,9.73
2022-08-22T11:16:46.091Z,8.30
2022-08-22T11:19:40.104Z,8.63
2022-08-22T11:22:16.351Z,10.05
2022-08-22T11:25:11.991Z,10.70
2022-08-22T11:27:50.989Z,10.63
2022-08-22T11:30:22.925Z,10.65
2022-08-22T11:33:46.445Z,10.45
2022-08-22T11:36:33.699Z,8.93
2022-08-22T11:39:13.774Z,9.45
2022-08-22T11:41:56.461Z,6.57
2022-08-22T11:44:31.401Z,6.35
2022-08-22T11:47:05.706Z,4.85
2022-08-22T11:50:29.413Z,5.45
2022-08-22T11:53:20.475Z,4.93
2022-08-22T11:55:59.263Z,6.28
2022-08-22T11:58:40.179Z,5.28
2022-08-22T12:01:18.381Z,5.15
2022-08-22T12:04:19.492Z,4.90
2022-08-22T12:06:56.133Z,5.07
2022-08-22T12:09:44.979Z,2.90
2022-08-22T12:12:44.277Z,3.78
2022-08-22T12:15:21.561Z,3.35
2022-08-22T12:18:21.423Z,3.05
2022-08-22T12:21:14.486Z,4.07
2022-08-22T12:23:57.754Z,2.93
2022-08-22T12:26:48.746Z,3.50
2022-08-22T12:29:39.716Z,3.00
2022-08-22T12:32:57.215Z,2.55
2022-08-22T12:35:39.699Z,2.28
2022-08-22T12:38:29.179Z,2.25
2022-08-22T12:41:28.295Z,2.90
2022-08-22T12:44:27.764Z,3.67
2022-08-22T12:47:36.445Z,3.97
2022-08-22T12:50:28.163Z,2.90
2022-08-22T12:53:32.684Z,4.25
2022-08-22T12:56:10.355Z,3.35
2022-08-22T12:59:01.172Z,2.90
2022-08-22T13:01:43.200Z,3.17
2022-08-22T13:04:33.332Z,4.07
2022-08-22T13:07:27.293Z,6.82
2022-08-22T13:10:06.661Z,7.30
2022-08-22T13:12:44.480Z,8.25
2022-08-22T13:15:38.362Z,7.72
2022-08-22T13:18:32.410Z,9.57
2022-08-22T13:21:14.503Z,6.90
2022-08-22T13:23:50.800Z,6.13
2022-08-22T13:26:33.973Z,5.82
2022-08-22T13:29:25.310Z,5.70
2022-08-22T13:32:01.953Z,4.30
2022-08-22T13:34:40.058Z,4.30
2022-08-22T13:37:13.589Z,3.95
2022-08-22T13:39:49.124Z,3.83
2022-08-22T13:42:30.383Z,4.50
2022-08-22T13:45:06.181Z,3.80
2022-08-22T13:47:39.532Z,4.43
2022-08-22T13:50:14.000Z,4.43
2022-08-22T13:52:52.329Z,3.47
2022-08-22T13:55:29.539Z,3.00
2022-08-22T13:58:07.537Z,3.05
2022-08-22T14:01:17.653Z,3.17
2022-08-22T14:03:49.705Z,3.75
2022-08-22T14:06:43.966Z,3.22
2022-08-22T14:12:24.478Z,2.80
2022-08-22T14:14:58.755Z,3.78
2022-08-22T14:17:42.516Z,3.78
2022-08-22T14:23:09.333Z,3.33
2022-08-22T14:25:42.858Z,3.78
2022-08-22T14:28:33.313Z,3.15
2022-08-22T14:31:22.196Z,2.85
2022-08-22T14:33:54.652Z,3.60
2022-08-22T14:36:27.083Z,3.83
2022-08-22T14:39:00.608Z,3.95
2022-08-22T14:41:52.448Z,4.00
2022-08-22T14:44:32.201Z,3.40
2022-08-22T14:47:43.336Z,3.92
2022-08-22T14:50:47.507Z,3.13
2022-08-22T14:53:40.680Z,4.03
2022-08-22T14:56:13.017Z,4.03
2022-08-22T14:58:51.578Z,3.45
2022-08-22T15:01:29.726Z,3.67
2022-08-22T15:06:59.776Z,3.78
2022-08-22T15:09:35.222Z,3.72
2022-08-22T15:12:06.198Z,3.97
2022-08-22T15:14:52.354Z,3.45
2022-08-22T15:17:44.217Z,3.53
2022-08-22T15:20:28.759Z,3.83
2022-08-22T15:23:00.597Z,4.10
2022-08-22T15:25:32.421Z,3.00
2022-08-22T15:28:07.495Z,4.40
2022-08-22T15:30:54.139Z,3.83
2022-08-22T15:33:27.639Z,3.80
2022-08-22T15:36:11.029Z,4.25
2022-08-22T15:38:47.909Z,3.30
2022-08-22T15:41:36.015Z,3.05
2022-08-22T15:44:33.213Z,3.55
2022-08-22T15:47:11.971Z,4.00
2022-08-22T15:49:59.265Z,3.72
2022-08-22T15:52:31.168Z,3.80
2022-08-22T15:55:34.482Z,3.03
2022-08-22T15:58:21.446Z,3.13
2022-08-22T16:01:19.136Z,3.40
2022-08-22T16:03:59.096Z,3.30
2022-08-22T16:07:01.962Z,3.65
2022-08-22T16:09:38.328Z,3.38
2022-08-22T16:12:13.390Z,2.60
2022-08-22T16:14:50.046Z,3.22
2022-08-22T16:17:44.919Z,3.63
2022-08-22T16:20:57.856Z,3.20
2022-08-22T16:23:28.419Z,3.55
2022-08-22T16:26:21.554Z,2.90
2022-08-22T16:28:58.515Z,3.33
2022-08-22T16:31:35.661Z,3.00
2022-08-22T16:34:25.097Z,4.63
2022-08-22T16:37:36.088Z,4.57
2022-08-22T16:40:15.598Z,4.93
2022-08-22T16:42:47.796Z,4.32
2022-08-22T16:45:19.786Z,4.30
2022-08-22T16:48:05.298Z,5.13
2022-08-22T16:50:37.675Z,3.22
2022-08-22T16:53:12.400Z,5.03
2022-08-22T16:55:48.782Z,4.72
2022-08-22T16:59:00.862Z,3.72
2022-08-22T17:01:47.316Z,2.80
2022-08-22T17:04:39.746Z,3.85
2022-08-22T17:07:50.748Z,2.97
2022-08-22T17:10:35.164Z,3.38
2022-08-22T17:13:20.314Z,3.95
2022-08-22T17:16:13.705Z,3.28
2022-08-22T17:19:14.072Z,4.30
2022-08-22T17:21:51.773Z,3.97
2022-08-22T17:24:31.946Z,4.50
2022-08-22T17:27:07.909Z,4.72
2022-08-22T17:29:46.400Z,2.95
2022-08-22T17:32:21.607Z,3.50
2022-08-22T17:35:17.649Z,3.78
2022-08-22T17:40:48.759Z,3.72
2022-08-22T17:43:36.209Z,3.30
2022-08-22T17:46:38.563Z,3.92
2022-08-22T17:49:38.120Z,3.00
2022-08-22T17:52:11.842Z,4.30
2022-08-22T17:54:47.029Z,4.05
2022-08-22T17:57:41.276Z,3.58
2022-08-22T18:00:18.937Z,3.65
2022-08-22T18:02:58.862Z,3.88
2022-08-22T18:05:32.333Z,3.88
2022-08-22T18:11:18.690Z,4.07
2022-08-22T18:17:14.738Z,3.38
2022-08-22T18:23:21.760Z,3.75
2022-08-22T18:26:30.196Z,3.97
2022-08-22T18:29:54.054Z,3.75
2022-08-22T18:39:10.586Z,3.90
2022-08-22T18:42:03.984Z,3.67
2022-08-22T18:53:37.234Z,4.07
2022-08-22T19:11:54.111Z,3.65
2022-08-22T19:18:47.957Z,4.00
2022-08-22T19:25:54.287Z,3.95
2022-08-22T19:44:31.123Z,4.93
2022-08-22T19:54:23.064Z,6.32
2022-08-22T20:05:31.518Z,6.00
2022-08-22T20:53:10.011Z,8.10
2022-08-22T20:55:47.273Z,8.05
2022-08-22T21:02:22.482Z,7.68
2022-08-22T21:09:20.226Z,8.50
2022-08-22T21:11:59.828Z,8.13
2022-08-22T21:14:46.482Z,7.70
2022-08-22T21:17:34.328Z,8.57
2022-08-22T21:26:30.592Z,8.40
2022-08-22T21:29:33.793Z,8.48
2022-08-22T21:32:20.769Z,9.30
2022-08-22T21:37:54.126Z,9.27
2022-08-22T21:40:44.616Z,9.57
2022-08-22T21:43:30.228Z,8.93
2022-08-22T21:45:59.693Z,9.50
2022-08-22T21:48:34.262Z,9.93
2022-08-22T21:51:58.338Z,9.80
2022-08-22T21:54:49.475Z,9.57
2022-08-22T21:57:39.155Z,10.73
2022-08-22T22:00:33.480Z,10.43
2022-08-22T22:03:08.215Z,10.50
2022-08-22T22:05:39.612Z,10.13
2022-08-22T22:08:14.105Z,11.38
2022-08-22T22:10:45.938Z,11.63
2022-08-22T22:13:15.968Z,12.00
2022-08-22T22:15:54.127Z,11.13
2022-08-22T22:18:24.805Z,10.88
2022-08-22T22:20:57.596Z,12.23
2022-08-22T22:23:29.745Z,11.32
2022-08-22T22:26:02.602Z,12.90
2022-08-22T22:28:33.511Z,13.90
2022-08-22T22:31:07.523Z,13.02
2022-08-22T22:33:43.414Z,11.77
2022-08-22T22:36:15.659Z,15.02
2022-08-22T22:38:46.334Z,14.65
2022-08-22T22:41:15.411Z,15.25
2022-08-22T22:43:46.198Z,15.40
2022-08-22T22:46:18.490Z,14.75
2022-08-22T22:48:53.891Z,16.00
2022-08-22T22:51:22.744Z,15.27
2022-08-22T22:53:53.966Z,15.60
2022-08-22T22:56:24.749Z,14.75
2022-08-22T22:59:00.946Z,15.88
2022-08-22T23:02:01.973Z,14.98
2022-08-22T23:04:37.080Z,16.45
2022-08-22T23:07:08.976Z,17.10
2022-08-22T23:09:38.628Z,16.42
2022-08-22T23:12:18.083Z,17.08
2022-08-22T23:14:51.307Z,16.33
2022-08-22T23:17:27.640Z,16.92
2022-08-22T23:19:58.855Z,17.60
2022-08-22T23:22:35.025Z,18.95
2022-08-22T23:25:07.199Z,17.90
2022-08-22T23:27:35.902Z,18.83
2022-08-22T23:30:13.186Z,19.10
2022-08-22T23:32:48.811Z,20.23
2022-08-22T23:35:17.681Z,19.23
2022-08-22T23:37:48.741Z,19.05
2022-08-22T23:40:17.502Z,19.27
2022-08-22T23:42:48.678Z,19.20
2022-08-22T23:45:24.709Z,19.83
2022-08-22T23:47:56.201Z,18.50
2022-08-22T23:50:24.924Z,20.15
2022-08-22T23:52:55.958Z,19.08
2022-08-22T23:55:26.714Z,18.55
2022-08-22T23:57:58.632Z,19.83
